createdAt,value
2023-05-14T00:00:59.847Z,51.92
2023-05-14T00:03:28.266Z,55.92
2023-05-14T00:05:56.088Z,55.25
2023-05-14T00:08:25.275Z,57.92
2023-05-14T00:10:53.983Z,50.80
2023-05-14T00:13:21.736Z,57.20
2023-05-14T00:15:49.497Z,54.33
2023-05-14T00:18:17.760Z,53.70
2023-05-14T00:20:45.578Z,54.92
2023-05-14T00:23:13.593Z,57.33
2023-05-14T00:25:43.306Z,59.13
2023-05-14T00:28:11.089Z,57.60
2023-05-14T00:30:39.733Z,65.15
2023-05-14T00:33:08.332Z,55.67
2023-05-14T00:35:36.267Z,56.60
2023-05-14T00:38:04.792Z,56.10
2023-05-14T00:40:33.269Z,54.65
2023-05-14T00:43:02.521Z,50.50
2023-05-14T00:45:30.318Z,48.35
2023-05-14T00:47:58.747Z,50.50
2023-05-14T00:50:27.112Z,52.55
2023-05-14T00:52:55.022Z,60.00
2023-05-14T00:55:24.264Z,57.33
2023-05-14T00:57:52.302Z,52.67
2023-05-14T01:00:22.129Z,58.92
2023-05-14T01:02:50.599Z,52.20
2023-05-14T01:05:18.680Z,57.83
2023-05-14T01:07:56.781Z,59.38
2023-05-14T01:10:30.043Z,58.45
2023-05-14T01:13:05.085Z,55.50
2023-05-14T01:15:37.087Z,58.83
2023-05-14T01:18:08.067Z,63.85
2023-05-14T01:20:36.447Z,60.67
2023-05-14T01:23:05.956Z,67.50
2023-05-14T01:25:34.281Z,70.38
2023-05-14T01:28:08.059Z,65.60
2023-05-14T01:30:38.530Z,64.25
2023-05-14T01:33:11.114Z,69.82
2023-05-14T01:35:39.777Z,63.25
2023-05-14T01:38:12.314Z,66.20
2023-05-14T01:40:41.394Z,67.57
2023-05-14T01:43:09.702Z,72.35
2023-05-14T01:45:38.298Z,66.88
2023-05-14T01:48:07.240Z,69.90
2023-05-14T01:50:35.107Z,67.82
2023-05-14T01:53:02.925Z,67.57
2023-05-14T01:55:32.125Z,72.70
2023-05-14T01:57:59.940Z,69.53
2023-05-14T02:00:28.168Z,68.93
2023-05-14T02:02:56.509Z,71.85
2023-05-14T02:05:24.396Z,77.80
2023-05-14T02:07:52.823Z,72.38
2023-05-14T02:10:21.256Z,67.85
2023-05-14T02:12:50.542Z,69.18
2023-05-14T02:15:18.408Z,71.57
2023-05-14T02:17:46.966Z,76.50
2023-05-14T02:20:15.093Z,73.90
2023-05-14T02:22:45.658Z,76.60
2023-05-14T02:25:14.216Z,71.05
2023-05-14T02:27:42.011Z,76.18
2023-05-14T02:30:12.650Z,77.97
2023-05-14T02:32:40.567Z,75.78
2023-05-14T02:35:09.264Z,72.28
2023-05-14T02:37:37.040Z,76.05
2023-05-14T02:40:05.729Z,78.80
2023-05-14T02:42:33.506Z,80.63
2023-05-14T02:45:01.271Z,74.20
2023-05-14T02:47:31.011Z,72.30
2023-05-14T02:49:58.824Z,77.45
2023-05-14T02:52:26.639Z,75.55
2023-05-14T02:54:54.456Z,71.35
2023-05-14T02:57:22.239Z,74.22
2023-05-14T02:59:50.033Z,74.07
2023-05-14T03:02:18.722Z,73.70
2023-05-14T03:04:48.273Z,74.72
2023-05-14T03:07:16.056Z,73.57
2023-05-14T03:09:44.282Z,71.97
2023-05-14T03:12:12.695Z,82.10
2023-05-14T03:14:40.505Z,78.45
2023-05-14T03:17:09.012Z,74.38
2023-05-14T03:19:36.900Z,72.70
2023-05-14T03:22:06.269Z,73.88
2023-05-14T03:24:34.623Z,70.60
2023-05-14T03:27:02.389Z,74.70
2023-05-14T03:29:30.504Z,75.30
2023-05-14T03:31:58.937Z,68.88
2023-05-14T03:34:26.803Z,71.32
2023-05-14T03:36:54.561Z,78.40
2023-05-14T03:39:24.212Z,76.68
2023-05-14T03:44:19.648Z,72.90
2023-05-14T03:46:47.970Z,75.50
2023-05-14T03:49:15.784Z,71.43
2023-05-14T03:51:43.550Z,70.30
2023-05-14T03:54:11.833Z,74.05
2023-05-14T03:56:41.144Z,71.65
2023-05-14T03:59:08.930Z,71.22
2023-05-14T04:01:37.424Z,75.63
2023-05-14T04:04:05.589Z,74.07
2023-05-14T04:06:34.146Z,69.40
2023-05-14T04:09:02.544Z,70.05
2023-05-14T04:11:30.316Z,69.57
2023-05-14T04:13:59.457Z,68.63
2023-05-14T04:16:27.846Z,68.97
2023-05-14T04:18:55.768Z,70.75
2023-05-14T04:21:23.568Z,72.70
2023-05-14T04:23:52.129Z,74.75
2023-05-14T04:26:20.085Z,77.25
2023-05-14T04:28:47.900Z,70.22
2023-05-14T04:31:17.519Z,70.28
2023-05-14T04:36:12.882Z,69.68
2023-05-14T04:38:42.098Z,71.45
2023-05-14T04:41:09.876Z,65.95
2023-05-14T04:43:37.625Z,68.30
2023-05-14T04:46:06.219Z,69.43
2023-05-14T04:48:35.380Z,75.85
2023-05-14T04:51:04.974Z,69.57
2023-05-14T04:53:34.634Z,70.10
2023-05-14T04:56:02.391Z,74.32
2023-05-14T04:58:34.617Z,66.03
2023-05-14T05:01:04.411Z,70.38
2023-05-14T05:03:32.247Z,68.30
2023-05-14T05:06:01.465Z,66.45
2023-05-14T05:08:29.702Z,69.93
2023-05-14T05:10:57.520Z,68.70
2023-05-14T05:13:25.342Z,63.78
2023-05-14T05:15:53.157Z,72.18
2023-05-14T05:18:20.965Z,69.45
2023-05-14T05:20:48.786Z,72.13
2023-05-14T05:23:18.491Z,71.03
2023-05-14T05:25:46.233Z,67.13
2023-05-14T05:28:13.997Z,69.72
2023-05-14T05:30:42.452Z,71.78
2023-05-14T05:33:10.351Z,73.82
2023-05-14T05:35:38.298Z,73.65
2023-05-14T05:38:06.480Z,70.43
2023-05-14T05:40:35.697Z,68.10
2023-05-14T05:43:03.449Z,70.05
2023-05-14T05:45:31.853Z,73.45
2023-05-14T05:47:59.710Z,66.28
2023-05-14T05:50:27.588Z,66.80
2023-05-14T05:52:55.826Z,70.40
2023-05-14T05:55:23.772Z,70.30
2023-05-14T05:57:52.992Z,68.55
2023-05-14T06:00:22.356Z,66.90
2023-05-14T06:02:50.480Z,70.97
2023-05-14T06:05:19.258Z,64.05
2023-05-14T06:07:47.689Z,73.68
2023-05-14T06:10:15.473Z,73.38
2023-05-14T06:12:43.260Z,69.10
2023-05-14T06:15:13.697Z,72.35
2023-05-14T06:17:41.555Z,69.60
2023-05-14T06:20:10.163Z,67.18
2023-05-14T06:22:38.636Z,71.90
2023-05-14T06:25:07.065Z,65.93
2023-05-14T06:27:34.847Z,64.45
2023-05-14T06:30:03.144Z,66.43
2023-05-14T06:32:32.386Z,66.40
2023-05-14T06:35:01.876Z,60.83
2023-05-14T06:37:30.200Z,63.47
2023-05-14T06:39:58.149Z,62.35
2023-05-14T06:42:26.367Z,63.30
2023-05-14T06:44:55.055Z,66.85
2023-05-14T06:47:23.003Z,66.70
2023-05-14T06:49:52.251Z,60.78
2023-05-14T06:52:20.757Z,65.15
2023-05-14T06:54:48.520Z,63.65
2023-05-14T06:57:16.289Z,61.38
2023-05-14T06:59:44.701Z,61.08
2023-05-14T07:02:13.206Z,65.80
2023-05-14T07:04:41.248Z,66.15
2023-05-14T07:07:15.600Z,63.10
2023-05-14T07:09:43.407Z,58.95
2023-05-14T07:12:11.276Z,61.97
2023-05-14T07:14:39.612Z,62.00
2023-05-14T07:17:07.469Z,61.22
2023-05-14T07:19:35.306Z,56.97
2023-05-14T07:22:03.720Z,58.53
2023-05-14T07:24:32.872Z,57.42
2023-05-14T07:27:01.877Z,55.28
2023-05-14T07:29:30.623Z,57.97
2023-05-14T07:31:58.402Z,61.97
2023-05-14T07:34:26.163Z,62.50
2023-05-14T07:36:54.821Z,57.47
2023-05-14T07:39:22.663Z,61.23
2023-05-14T07:41:52.021Z,62.63
2023-05-14T07:44:20.398Z,59.40
2023-05-14T07:46:48.198Z,56.53
2023-05-14T07:49:16.001Z,53.30
2023-05-14T07:51:44.091Z,57.30
2023-05-14T07:54:12.338Z,59.05
2023-05-14T07:56:40.156Z,58.47
2023-05-14T07:59:09.857Z,53.47
2023-05-14T08:01:39.335Z,60.42
2023-05-14T08:04:07.510Z,55.95
2023-05-14T08:06:36.189Z,56.90
2023-05-14T08:09:05.327Z,59.22
2023-05-14T08:11:33.161Z,59.95
2023-05-14T08:14:01.461Z,54.70
2023-05-14T08:16:30.640Z,54.55
2023-05-14T08:18:58.469Z,53.13
2023-05-14T08:21:26.852Z,53.70
2023-05-14T08:23:54.674Z,57.58
2023-05-14T08:26:22.860Z,56.25
2023-05-14T08:28:51.137Z,54.17
2023-05-14T08:31:18.925Z,54.97
2023-05-14T08:33:48.082Z,53.67
2023-05-14T08:36:16.423Z,54.17
2023-05-14T08:38:45.329Z,52.00
2023-05-14T08:41:14.917Z,52.80
2023-05-14T08:46:16.027Z,53.15
2023-05-14T08:48:49.586Z,52.83
2023-05-14T08:51:18.844Z,47.67
2023-05-14T08:53:46.675Z,52.90
2023-05-14T08:56:16.813Z,45.35
2023-05-14T08:58:44.622Z,43.45
2023-05-14T09:01:12.416Z,44.22
2023-05-14T09:03:41.739Z,40.53
2023-05-14T09:06:10.444Z,40.45
2023-05-14T09:08:39.778Z,42.80
2023-05-14T09:11:08.383Z,41.80
2023-05-14T09:13:41.007Z,40.77
2023-05-14T09:16:09.645Z,38.33
2023-05-14T09:18:37.975Z,37.47
2023-05-14T09:21:06.092Z,37.38
2023-05-14T09:23:35.260Z,44.95
2023-05-14T09:26:06.958Z,36.70
2023-05-14T09:28:34.753Z,36.65
2023-05-14T09:31:04.240Z,40.47
2023-05-14T09:36:01.284Z,36.80
2023-05-14T09:38:32.362Z,37.75
2023-05-14T09:41:00.768Z,36.33
2023-05-14T09:43:29.908Z,41.47
2023-05-14T09:45:57.684Z,39.08
2023-05-14T09:48:26.363Z,34.47
2023-05-14T09:50:54.197Z,33.67
2023-05-14T09:53:22.216Z,35.90
2023-05-14T09:55:53.224Z,32.15
2023-05-14T09:58:21.326Z,33.08
2023-05-14T10:00:52.068Z,37.95
2023-05-14T10:03:21.344Z,33.28
2023-05-14T10:05:51.092Z,29.38
2023-05-14T10:08:23.451Z,34.60
2023-05-14T10:10:54.760Z,33.22
2023-05-14T10:13:28.382Z,28.55
2023-05-14T10:16:02.896Z,31.20
2023-05-14T10:18:37.188Z,30.17
2023-05-14T10:21:06.731Z,31.40
2023-05-14T10:26:03.812Z,30.23
2023-05-14T10:28:32.827Z,31.35
2023-05-14T10:31:02.038Z,32.60
2023-05-14T10:33:30.299Z,28.35
2023-05-14T10:36:01.033Z,35.08
2023-05-14T10:38:29.830Z,30.42
2023-05-14T10:41:00.036Z,30.45
2023-05-14T10:43:29.334Z,27.40
2023-05-14T10:45:57.446Z,29.25
2023-05-14T10:48:27.569Z,29.38
2023-05-14T10:50:57.730Z,29.88
2023-05-14T10:53:34.517Z,27.92
2023-05-14T10:56:07.456Z,27.73
2023-05-14T10:58:39.110Z,27.08
2023-05-14T11:01:08.446Z,29.17
2023-05-14T11:03:43.300Z,27.25
2023-05-14T11:06:12.199Z,27.25
2023-05-14T11:08:40.975Z,30.20
2023-05-14T11:11:10.725Z,31.35
2023-05-14T11:13:38.630Z,24.23
2023-05-14T11:18:41.061Z,26.05
2023-05-14T11:21:10.251Z,23.45
2023-05-14T11:23:38.055Z,23.65
2023-05-14T11:26:06.399Z,26.02
2023-05-14T11:28:34.222Z,20.90
2023-05-14T11:31:02.199Z,22.13
2023-05-14T11:33:31.155Z,24.98
2023-05-14T11:35:58.924Z,21.02
2023-05-14T11:38:28.077Z,20.50
2023-05-14T11:40:56.906Z,22.95
2023-05-14T11:43:25.188Z,21.52
2023-05-14T11:45:53.918Z,25.02
2023-05-14T11:48:22.615Z,22.42
2023-05-14T11:50:52.407Z,21.42
2023-05-14T11:53:20.831Z,22.33
2023-05-14T11:55:50.554Z,23.20
2023-05-14T11:58:19.526Z,21.35
2023-05-14T12:00:47.902Z,21.42
2023-05-14T12:03:16.367Z,22.63
2023-05-14T12:05:57.035Z,21.15
2023-05-14T12:08:28.548Z,22.30
2023-05-14T12:10:59.607Z,22.63
2023-05-14T12:13:27.853Z,23.17
2023-05-14T12:15:57.814Z,23.58
2023-05-14T12:18:26.427Z,20.38
2023-05-14T12:20:54.262Z,24.47
2023-05-14T12:23:27.157Z,22.48
2023-05-14T12:25:54.920Z,25.95
2023-05-14T12:28:24.704Z,23.65
2023-05-14T12:30:57.756Z,22.83
2023-05-14T12:33:26.575Z,21.30
2023-05-14T12:35:58.967Z,22.80
2023-05-14T12:38:28.581Z,22.20
2023-05-14T12:40:56.862Z,21.02
2023-05-14T12:43:30.175Z,21.52
2023-05-14T12:45:58.083Z,19.00
2023-05-14T12:48:26.582Z,22.60
2023-05-14T12:50:54.721Z,22.17
2023-05-14T12:53:22.525Z,18.65
2023-05-14T12:55:50.326Z,24.25
2023-05-14T12:58:18.434Z,20.92
2023-05-14T13:00:47.674Z,22.63
2023-05-14T13:03:15.604Z,25.77
2023-05-14T13:05:43.628Z,20.75
2023-05-14T13:08:14.666Z,22.20
2023-05-14T13:10:42.435Z,18.73
2023-05-14T13:13:10.445Z,22.90
2023-05-14T13:15:38.653Z,22.92
2023-05-14T13:18:08.190Z,23.10
2023-05-14T13:20:36.403Z,18.65
2023-05-14T13:23:04.215Z,17.98
2023-05-14T13:25:32.026Z,16.77
2023-05-14T13:28:00.115Z,17.67
2023-05-14T13:30:27.986Z,17.98
2023-05-14T13:32:55.918Z,17.92
2023-05-14T13:35:25.487Z,17.58
2023-05-14T13:37:53.458Z,18.50
2023-05-14T13:40:21.354Z,15.95
2023-05-14T13:42:49.397Z,16.75
2023-05-14T13:45:17.206Z,18.30
2023-05-14T13:47:45.043Z,16.75
2023-05-14T13:50:13.445Z,16.15
2023-05-14T13:52:42.596Z,17.52
2023-05-14T13:55:10.742Z,17.58
2023-05-14T13:57:39.963Z,18.52
2023-05-14T14:00:11.114Z,19.50
2023-05-14T14:02:38.938Z,16.30
2023-05-14T14:05:07.991Z,16.80
2023-05-14T14:07:35.854Z,16.55
2023-05-14T14:10:05.674Z,14.70
2023-05-14T14:12:34.089Z,17.35
2023-05-14T14:15:02.841Z,17.05
2023-05-14T14:17:30.801Z,15.20
2023-05-14T14:19:59.004Z,12.70
2023-05-14T14:22:28.983Z,14.00
2023-05-14T14:24:57.205Z,14.75
2023-05-14T14:27:26.994Z,15.95
2023-05-14T14:29:56.727Z,15.55
2023-05-14T14:32:24.528Z,13.65
2023-05-14T14:34:52.884Z,15.35
2023-05-14T14:37:21.279Z,12.30
2023-05-14T14:39:50.811Z,14.18
2023-05-14T14:42:18.663Z,13.13
2023-05-14T14:44:47.834Z,15.32
2023-05-14T14:47:15.648Z,11.27
2023-05-14T14:49:44.081Z,11.73
2023-05-14T14:52:11.916Z,12.35
2023-05-14T14:54:39.711Z,12.88
2023-05-14T14:57:08.070Z,13.93
2023-05-14T14:59:36.333Z,13.15
2023-05-14T15:02:06.404Z,14.55
2023-05-14T15:04:35.320Z,17.63
2023-05-14T15:07:03.415Z,15.05
2023-05-14T15:09:31.334Z,14.60
2023-05-14T15:11:59.731Z,14.45
2023-05-14T15:14:27.942Z,41.03
2023-05-14T15:16:55.816Z,16.33
2023-05-14T15:19:25.578Z,14.02
2023-05-14T15:21:53.754Z,11.73
2023-05-14T15:24:23.893Z,13.48
2023-05-14T15:26:53.428Z,13.75
2023-05-14T15:29:21.596Z,10.75
2023-05-14T15:31:49.376Z,11.05
2023-05-14T15:34:17.767Z,12.23
2023-05-14T15:36:46.944Z,13.80
2023-05-14T15:39:14.737Z,14.10
2023-05-14T15:41:43.114Z,13.60
2023-05-14T15:44:10.899Z,14.20
2023-05-14T15:46:38.899Z,11.95
2023-05-14T15:49:07.316Z,11.15
2023-05-14T15:51:35.888Z,12.23
2023-05-14T15:54:05.075Z,13.63
2023-05-14T15:56:33.469Z,17.38
2023-05-14T15:59:01.250Z,14.02
2023-05-14T16:01:29.134Z,14.25
2023-05-14T16:03:57.564Z,13.80
2023-05-14T16:06:26.365Z,17.95
2023-05-14T16:08:54.448Z,12.45
2023-05-14T16:11:24.184Z,16.80
2023-05-14T16:13:51.974Z,17.08
2023-05-14T16:16:20.733Z,17.80
2023-05-14T16:18:49.081Z,15.13
2023-05-14T16:21:16.936Z,19.05
2023-05-14T16:23:44.691Z,16.17
2023-05-14T16:26:13.051Z,17.17
2023-05-14T16:28:42.777Z,19.15
2023-05-14T16:31:10.574Z,19.60
2023-05-14T16:33:38.881Z,19.38
2023-05-14T16:36:07.095Z,18.27
2023-05-14T16:38:38.520Z,16.67
2023-05-14T16:41:10.351Z,18.08
2023-05-14T16:43:38.122Z,18.90
2023-05-14T16:46:07.419Z,16.15
2023-05-14T16:48:35.952Z,16.77
2023-05-14T16:51:03.763Z,18.95
2023-05-14T16:53:31.558Z,15.27
2023-05-14T16:55:59.939Z,17.38
2023-05-14T16:58:28.402Z,17.30
2023-05-14T17:00:56.234Z,16.52
2023-05-14T17:03:25.522Z,14.00
2023-05-14T17:05:53.485Z,18.80
2023-05-14T17:08:21.294Z,15.68
2023-05-14T17:10:49.697Z,16.58
2023-05-14T17:13:17.738Z,12.52
2023-05-14T17:15:45.549Z,10.13
2023-05-14T17:18:13.967Z,13.18
2023-05-14T17:20:43.158Z,10.38
2023-05-14T17:23:10.897Z,15.68
2023-05-14T17:25:39.399Z,10.05
2023-05-14T17:28:07.206Z,13.57
2023-05-14T17:30:34.992Z,14.85
2023-05-14T17:33:03.416Z,15.27
2023-05-14T17:35:35.678Z,16.45
2023-05-14T17:38:05.434Z,12.30
2023-05-14T17:40:33.470Z,12.98
2023-05-14T17:43:01.378Z,10.02
2023-05-14T17:45:36.380Z,12.18
2023-05-14T17:48:10.756Z,15.93
2023-05-14T17:50:39.795Z,16.52
2023-05-14T17:53:08.911Z,11.80
2023-05-14T17:55:42.663Z,14.68
2023-05-14T17:58:11.366Z,10.52
2023-05-14T18:00:39.461Z,12.88
2023-05-14T18:03:08.048Z,14.45
2023-05-14T18:05:36.111Z,12.30
2023-05-14T18:08:03.868Z,11.23
2023-05-14T18:10:33.297Z,10.77
2023-05-14T18:13:01.108Z,11.68
2023-05-14T18:15:29.301Z,13.43
2023-05-14T18:17:57.141Z,12.85
2023-05-14T18:20:24.993Z,11.23
2023-05-14T18:22:52.794Z,11.95
2023-05-14T18:25:20.905Z,11.82
2023-05-14T18:27:50.055Z,15.55
2023-05-14T18:30:17.878Z,13.85
2023-05-14T18:32:46.842Z,14.20
2023-05-14T18:35:14.820Z,14.23
2023-05-14T18:37:42.582Z,15.00
2023-05-14T18:40:16.355Z,14.77
2023-05-14T18:42:46.207Z,13.80
2023-05-14T18:45:15.631Z,15.38
2023-05-14T18:47:43.495Z,13.95
2023-05-14T18:50:11.818Z,15.70
2023-05-14T18:52:39.767Z,11.73
2023-05-14T18:55:08.211Z,13.10
2023-05-14T18:57:37.601Z,13.25
2023-05-14T19:00:06.403Z,11.07
2023-05-14T19:02:36.021Z,11.02
2023-05-14T19:05:04.057Z,9.70
2023-05-14T19:07:32.435Z,8.80
2023-05-14T19:10:00.430Z,11.27
2023-05-14T19:12:28.825Z,12.82
2023-05-14T19:14:56.649Z,12.07
2023-05-14T19:17:25.038Z,15.27
2023-05-14T19:19:54.456Z,10.05
2023-05-14T19:22:22.846Z,8.75
2023-05-14T19:27:24.703Z,13.73
2023-05-14T19:29:52.533Z,14.52
2023-05-14T19:32:20.310Z,13.60
2023-05-14T19:34:49.500Z,12.88
2023-05-14T19:37:20.072Z,14.18
2023-05-14T19:39:48.584Z,11.73
2023-05-14T19:42:16.499Z,15.73
2023-05-14T19:44:44.314Z,17.10
2023-05-14T19:47:12.800Z,12.73
2023-05-14T19:49:40.714Z,12.52
2023-05-14T19:52:08.531Z,14.38
2023-05-14T19:54:38.395Z,12.65
2023-05-14T19:57:06.983Z,14.48
2023-05-14T19:59:34.810Z,12.15
2023-05-14T20:02:03.236Z,13.88
2023-05-14T20:04:31.101Z,13.85
2023-05-14T20:06:58.942Z,15.95
2023-05-14T20:09:27.646Z,12.70
2023-05-14T20:11:56.763Z,18.07
2023-05-14T20:14:24.599Z,13.55
2023-05-14T20:16:53.562Z,15.07
2023-05-14T20:19:22.169Z,14.20
2023-05-14T20:21:50.052Z,17.07
2023-05-14T20:24:18.062Z,14.55
2023-05-14T20:26:45.819Z,16.60
2023-05-14T20:29:15.642Z,16.13
2023-05-14T20:31:43.632Z,15.30
2023-05-14T20:34:11.373Z,20.20
2023-05-14T20:36:39.137Z,17.50
2023-05-14T20:39:07.365Z,16.73
2023-05-14T20:41:35.417Z,14.13
2023-05-14T20:44:03.160Z,13.07
2023-05-14T20:46:32.576Z,18.25
2023-05-14T20:49:01.920Z,15.13
2023-05-14T20:51:29.687Z,15.55
2023-05-14T20:53:57.659Z,14.10
2023-05-14T20:56:26.352Z,13.43
2023-05-14T20:58:54.114Z,14.47
2023-05-14T21:01:22.759Z,14.82
2023-05-14T21:03:52.140Z,19.10
2023-05-14T21:06:20.092Z,16.83
2023-05-14T21:08:47.901Z,16.48
2023-05-14T21:11:15.658Z,15.63
2023-05-14T21:13:44.174Z,12.75
2023-05-14T21:16:12.965Z,15.80
2023-05-14T21:18:40.855Z,22.48
2023-05-14T21:21:10.096Z,18.40
2023-05-14T21:23:38.429Z,17.52
2023-05-14T21:26:06.359Z,16.60
2023-05-14T21:28:34.171Z,26.33
2023-05-14T21:31:02.382Z,23.70
2023-05-14T21:33:30.167Z,22.05
2023-05-14T21:35:57.988Z,20.73
2023-05-14T21:38:27.918Z,25.75
2023-05-14T21:40:55.690Z,23.17
2023-05-14T21:43:23.496Z,22.15
2023-05-14T21:45:51.997Z,23.83
2023-05-14T21:48:20.834Z,27.42
2023-05-14T21:50:48.713Z,23.80
2023-05-14T21:53:17.111Z,25.63
2023-05-14T21:55:46.343Z,24.48
2023-05-14T21:58:14.213Z,25.65
2023-05-14T22:00:42.488Z,25.38
2023-05-14T22:03:10.415Z,25.23
2023-05-14T22:05:38.289Z,26.70
2023-05-14T22:08:07.177Z,26.25
2023-05-14T22:10:36.015Z,27.55
2023-05-14T22:13:05.164Z,24.25
2023-05-14T22:15:33.497Z,25.17
2023-05-14T22:18:03.085Z,26.45
2023-05-14T22:22:59.083Z,26.73
2023-05-14T22:25:27.230Z,29.27
2023-05-14T22:27:55.161Z,29.52
2023-05-14T22:30:25.067Z,33.00
2023-05-14T22:32:52.879Z,32.25
2023-05-14T22:35:21.251Z,31.52
2023-05-14T22:37:49.576Z,36.83
2023-05-14T22:40:17.338Z,32.13
2023-05-14T22:42:45.234Z,29.80
2023-05-14T22:45:13.693Z,30.00
2023-05-14T22:47:42.884Z,29.63
2023-05-14T22:50:12.121Z,33.20
2023-05-14T22:52:40.692Z,33.90
2023-05-14T22:55:09.309Z,33.30
2023-05-14T22:57:37.163Z,37.38
2023-05-14T23:00:07.559Z,35.42
2023-05-14T23:02:35.754Z,33.30
2023-05-14T23:05:05.434Z,34.08
2023-05-14T23:10:01.836Z,37.70
2023-05-14T23:12:29.669Z,39.28
2023-05-14T23:14:59.616Z,35.47
2023-05-14T23:17:27.851Z,39.90
2023-05-14T23:19:55.806Z,43.45
2023-05-14T23:22:25.533Z,43.55
2023-05-14T23:24:53.306Z,40.10
2023-05-14T23:27:21.070Z,44.00
2023-05-14T23:29:49.520Z,44.58
2023-05-14T23:32:17.297Z,50.05
2023-05-14T23:34:45.079Z,46.22
2023-05-14T23:37:13.555Z,55.22
2023-05-14T23:39:42.718Z,55.05
2023-05-14T23:42:12.030Z,52.55
2023-05-14T23:44:40.311Z,56.13
2023-05-14T23:47:08.784Z,60.70
2023-05-14T23:49:36.686Z,54.20
2023-05-14T23:52:05.269Z,57.65
2023-05-14T23:54:33.037Z,62.13
2023-05-14T23:57:05.045Z,57.88
2023-05-14T23:59:33.464Z,60.53
